Time;durP1;ratioP1;P1;durP2;ratioP2;P2;SDS_P1;SDS_P2;PMS_P1;PMS_P2;Temp;Humidity;BMP_temperature;BMP_pressure;BME280_temperature;BME280_humidity;BME280_pressure;Samples;Min_cycle;Max_cycle;Signal;HPM_P1;HPM_P2
2022/06/28 00:00:03;;;;;;;8.63;4.03;;;22.00;95.30;;;;;;4685815;30;20029;-84
2022/06/28 00:02:29;;;;;;;9.63;4.35;;;22.00;95.30;;;;;;4685718;30;20238;-85
2022/06/28 00:04:55;;;;;;;10.60;5.30;;;22.00;95.40;;;;;;4684012;30;20664;-85
2022/06/28 00:07:21;;;;;;;14.93;4.97;;;22.00;95.30;;;;;;4683310;30;20094;-86
2022/06/28 00:09:46;;;;;;;11.23;4.32;;;22.00;95.50;;;;;;4684104;30;20570;-86
2022/06/28 00:12:12;;;;;;;10.20;5.13;;;21.90;95.40;;;;;;4683661;30;20038;-82
2022/06/28 00:17:23;;;;;;;9.63;4.80;;;21.80;95.60;;;;;;4684865;30;20170;-83
2022/06/28 00:19:48;;;;;;;13.07;5.30;;;21.80;95.70;;;;;;4684425;30;20499;-83
2022/06/28 00:22:20;;;;;;;9.43;4.40;;;21.80;95.80;;;;;;4684601;30;20026;-85
2022/06/28 00:24:46;;;;;;;7.80;3.78;;;24.10;96.40;;;;;;4668392;30;20041;-82
2022/06/28 00:27:12;;;;;;;7.57;4.03;;;21.70;95.80;;;;;;4668844;30;20442;-85
2022/06/28 00:29:41;;;;;;;9.77;4.38;;;21.60;95.90;;;;;;4684798;30;20030;-86
2022/06/28 00:32:07;;;;;;;9.73;4.47;;;21.70;96.20;;;;;;4684308;30;20040;-84
2022/06/28 00:34:39;;;;;;;9.10;4.70;;;21.70;95.90;;;;;;4668776;30;20061;-85
2022/06/28 00:37:08;;;;;;;11.68;4.65;;;21.60;96.10;;;;;;4669012;30;20056;-85
2022/06/28 00:39:36;;;;;;;9.82;4.20;;;21.60;95.90;;;;;;4684397;30;20057;-85
2022/06/28 00:42:01;;;;;;;10.57;4.50;;;21.60;96.00;;;;;;4668630;30;20044;-81
2022/06/28 00:44:28;;;;;;;10.10;4.35;;;21.60;96.00;;;;;;4684526;30;20041;-84
2022/06/28 00:46:57;;;;;;;12.15;4.20;;;21.60;96.00;;;;;;4668733;30;20731;-86
2022/06/28 00:49:33;;;;;;;9.02;4.38;;;21.60;96.30;;;;;;4682805;30;20073;-86
2022/06/28 00:52:02;;;;;;;13.48;4.60;;;21.60;96.20;;;;;;4684132;30;20294;-85
2022/06/28 00:54:32;;;;;;;10.93;4.07;;;21.60;96.10;;;;;;4684112;30;20022;-85
2022/06/28 00:56:58;;;;;;;11.20;4.32;;;21.60;96.20;;;;;;4668727;30;20036;-82
2022/06/28 00:59:24;;;;;;;8.52;4.18;;;21.60;96.00;;;;;;4668089;30;20029;-84
2022/06/28 01:01:50;;;;;;;8.43;4.20;;;21.60;96.10;;;;;;4684221;30;20056;-86
2022/06/28 01:04:16;;;;;;;8.88;4.45;;;21.60;96.00;;;;;;4668121;30;20037;-85
2022/06/28 01:06:42;;;;;;;11.60;4.30;;;21.50;96.00;;;;;;4684309;30;20034;-85
2022/06/28 01:09:08;;;;;;;7.90;4.28;;;21.50;96.00;;;;;;4683984;30;20139;-82
2022/06/28 01:11:34;;;;;;;9.60;5.53;;;21.50;96.10;;;;;;4684084;30;20068;-86
2022/06/28 01:14:03;;;;;;;7.07;3.83;;;21.50;96.00;;;;;;4682988;30;20530;-81
2022/06/28 01:16:30;;;;;;;9.00;4.15;;;21.50;96.10;;;;;;4668386;30;20505;-85
2022/06/28 01:18:56;;;;;;;9.65;4.57;;;21.40;96.20;;;;;;4685866;30;20770;-83
2022/06/28 01:21:27;;;;;;;9.43;4.13;;;21.40;96.30;;;;;;4687453;30;20041;-84
2022/06/28 01:23:54;;;;;;;8.43;4.47;;;21.30;96.30;;;;;;4687082;30;20099;-84
2022/06/28 01:26:20;;;;;;;16.50;6.10;;;21.30;96.40;;;;;;4671315;30;20402;-86
2022/06/28 01:28:50;;;;;;;10.48;4.85;;;21.30;96.50;;;;;;4671901;30;20145;-85
2022/06/28 01:31:21;;;;;;;8.57;4.68;;;22.40;96.90;;;;;;4671256;30;20037;-85
2022/06/28 01:33:48;;;;;;;10.02;4.75;;;21.20;96.60;;;;;;4671549;30;20370;-85
2022/06/28 01:36:14;;;;;;;8.18;4.10;;;21.40;96.70;;;;;;4671370;30;20132;-82
2022/06/28 01:38:41;;;;;;;9.15;4.28;;;21.20;96.70;;;;;;4671354;30;20465;-85
2022/06/28 01:44:12;;;;;;;8.90;4.72;;;21.00;97.00;;;;;;4615959;31;20536;-85
2022/06/28 01:46:49;;;;;;;9.60;4.68;;;21.60;97.50;;;;;;4615842;31;20043;-86
2022/06/28 01:49:15;;;;;;;8.85;4.50;;;21.10;97.30;;;;;;4615428;30;20059;-84
2022/06/28 01:51:41;;;;;;;9.05;4.10;;;21.10;97.00;;;;;;4615816;31;20712;-84
2022/06/28 01:54:16;;;;;;;10.75;4.70;;;21.10;96.70;;;;;;4603023;30;20264;-85
2022/06/28 01:56:55;;;;;;;8.40;4.40;;;21.10;97.20;;;;;;4615786;31;20340;-86
2022/06/28 01:59:27;;;;;;;7.93;4.00;;;21.00;97.10;;;;;;4615958;31;20043;-85
2022/06/28 02:01:55;;;;;;;10.23;4.70;;;21.00;97.00;;;;;;4615799;31;20218;-86
2022/06/28 02:04:26;;;;;;;13.27;4.60;;;21.00;97.00;;;;;;4615224;31;20761;-86
2022/06/28 02:06:53;;;;;;;9.82;4.75;;;21.00;97.20;;;;;;4615483;31;20106;-84
2022/06/28 02:09:19;;;;;;;9.05;4.47;;;21.00;97.20;;;;;;4620257;31;20081;-86
2022/06/28 02:11:48;;;;;;;8.90;4.38;;;20.90;97.30;;;;;;4619580;31;20417;-86
2022/06/28 02:14:25;;;;;;;17.77;8.43;;;21.10;97.20;;;;;;4621129;31;20576;-85
2022/06/28 02:17:00;;;;;;;11.75;5.10;;;21.70;97.40;;;;;;4619437;31;20473;-85
2022/06/28 02:19:26;;;;;;;10.48;4.32;;;20.80;97.40;;;;;;4616181;31;20242;-83
2022/06/28 02:21:52;;;;;;;9.38;4.28;;;20.70;97.60;;;;;;4658781;30;20053;-86
2022/06/28 02:24:18;;;;;;;8.55;4.88;;;20.40;97.80;;;;;;4686571;30;20120;-84
2022/06/28 02:26:44;;;;;;;11.65;5.32;;;20.50;98.00;;;;;;4686472;30;20129;-85
2022/06/28 02:29:10;;;;;;;9.45;4.57;;;20.60;98.10;;;;;;4670343;30;20482;-85
2022/06/28 02:31:39;;;;;;;8.18;4.75;;;20.50;98.20;;;;;;4686137;30;20112;-86
2022/06/28 02:34:05;;;;;;;12.32;4.47;;;20.40;98.40;;;;;;4684820;30;20677;-86
2022/06/28 02:41:47;;;;;;;12.13;5.22;;;20.30;98.50;;;;;;4685853;30;20278;-84
2022/06/28 02:44:24;;;;;;;8.13;4.75;;;20.30;98.70;;;;;;4670195;30;20041;-85
2022/06/28 02:47:05;;;;;;;9.15;4.63;;;20.20;98.90;;;;;;4685916;30;20040;-83
2022/06/28 02:49:34;;;;;;;8.35;4.68;;;20.90;99.30;;;;;;4670058;30;20034;-85
2022/06/28 02:52:03;;;;;;;10.07;4.05;;;20.10;99.20;;;;;;4685804;30;20600;-86
2022/06/28 02:54:29;;;;;;;8.40;4.55;;;20.10;99.00;;;;;;4685958;30;20057;-85
2022/06/28 02:56:56;;;;;;;9.80;5.03;;;20.10;99.00;;;;;;4669944;30;20144;-86
2022/06/28 02:59:22;;;;;;;15.45;4.85;;;20.00;99.20;;;;;;4685495;30;20470;-82
2022/06/28 03:01:47;;;;;;;10.27;5.00;;;20.00;99.30;;;;;;4685747;30;20590;-86
2022/06/28 03:04:13;;;;;;;7.53;4.55;;;20.00;99.20;;;;;;4685259;30;20342;-82
2022/06/28 03:06:39;;;;;;;7.45;4.57;;;20.00;99.60;;;;;;4670347;30;20026;-83
2022/06/28 03:09:04;;;;;;;13.07;5.13;;;20.00;99.40;;;;;;4670092;30;20433;-86
2022/06/28 03:11:30;;;;;;;9.45;4.85;;;20.00;99.30;;;;;;4685709;30;20550;-83
2022/06/28 03:13:56;;;;;;;12.10;5.13;;;20.00;99.50;;;;;;4685626;30;20084;-83
2022/06/28 03:16:22;;;;;;;15.60;4.80;;;20.00;99.40;;;;;;4685120;30;20037;-86
2022/06/28 03:18:48;;;;;;;9.48;4.40;;;20.00;99.60;;;;;;4669779;30;20502;-86
2022/06/28 03:21:13;;;;;;;12.25;4.85;;;20.00;99.30;;;;;;4685582;30;20036;-86
2022/06/28 03:23:39;;;;;;;9.00;3.88;;;20.00;99.30;;;;;;4669804;30;20041;-85
2022/06/28 03:26:05;;;;;;;12.50;4.57;;;20.10;99.20;;;;;;4669699;30;20425;-85
2022/06/28 03:28:37;;;;;;;10.27;4.65;;;20.10;98.90;;;;;;4669570;30;20040;-86
2022/06/28 03:31:03;;;;;;;9.70;4.78;;;20.10;99.10;;;;;;4669450;30;20034;-85
2022/06/28 03:33:32;;;;;;;10.95;4.85;;;20.10;99.00;;;;;;4669943;30;20030;-85
2022/06/28 03:35:58;;;;;;;10.30;4.55;;;20.10;99.20;;;;;;4669428;30;20037;-85
2022/06/28 03:38:23;;;;;;;9.10;4.72;;;20.10;99.10;;;;;;4685015;30;20430;-83
2022/06/28 03:40:49;;;;;;;9.77;4.88;;;20.10;99.10;;;;;;4684085;30;20568;-84
2022/06/28 03:43:15;;;;;;;8.90;4.88;;;20.20;99.30;;;;;;4685120;30;20041;-86
2022/06/28 03:45:41;;;;;;;11.15;5.07;;;20.20;99.10;;;;;;4669618;30;20124;-85
2022/06/28 03:48:07;;;;;;;8.90;4.50;;;20.20;99.00;;;;;;4683611;30;20026;-84
2022/06/28 03:50:33;;;;;;;12.68;5.40;;;18.70;98.60;;;;;;4669450;30;20044;-86
2022/06/28 03:52:58;;;;;;;10.10;4.68;;;20.30;98.90;;;;;;4669367;30;20029;-85
2022/06/28 03:55:24;;;;;;;9.25;4.53;;;20.20;98.90;;;;;;4669099;30;20511;-83
2022/06/28 03:57:51;;;;;;;10.68;5.28;;;20.20;99.00;;;;;;4685059;30;20033;-86
2022/06/28 04:00:16;;;;;;;8.50;4.28;;;20.20;99.10;;;;;;4674904;25;20099;-84
2022/06/28 04:02:43;;;;;;;8.27;4.22;;;20.10;99.10;;;;;;4651660;30;20343;-84
2022/06/28 04:05:09;;;;;;;9.02;4.38;;;20.10;99.10;;;;;;4667449;30;20336;-86
2022/06/28 04:07:35;;;;;;;10.00;4.72;;;20.10;99.10;;;;;;4651765;30;20330;-85
2022/06/28 04:10:04;;;;;;;9.40;4.88;;;20.10;99.30;;;;;;4667577;30;20252;-86
2022/06/28 04:12:30;;;;;;;17.20;4.40;;;20.10;99.30;;;;;;4667548;30;20587;-84
2022/06/28 04:14:56;;;;;;;10.05;4.60;;;20.20;99.30;;;;;;4667423;30;20121;-86
2022/06/28 04:17:21;;;;;;;10.15;4.72;;;20.20;99.20;;;;;;4667314;30;20439;-87
2022/06/28 04:19:47;;;;;;;15.65;6.00;;;20.30;99.00;;;;;;4651586;30;20459;-84
2022/06/28 04:25:26;;;;;;;8.40;4.30;;;20.50;98.90;;;;;;4580460;31;20123;-84
2022/06/28 04:28:01;;;;;;;10.15;4.43;;;20.70;98.80;;;;;;4566877;31;20644;-86
2022/06/28 04:30:38;;;;;;;11.80;5.30;;;18.70;98.50;;;;;;4580632;31;20052;-83
2022/06/28 04:33:13;;;;;;;10.32;4.53;;;20.80;98.50;;;;;;4580586;31;20545;-87
2022/06/28 04:36:26;;;;;;;11.88;5.30;;;;;;;;;;4566782;31;20101;-83
2022/06/28 04:38:25;;;;;;;9.98;5.03;;;21.00;97.90;;;;;;4580343;31;20461;-84
2022/06/28 04:40:51;;;;;;;10.88;5.63;;;21.10;98.00;;;;;;4580560;31;20048;-86
2022/06/28 04:43:19;;;;;;;12.50;6.15;;;21.20;97.80;;;;;;4580389;31;20542;-84
2022/06/28 04:45:59;;;;;;;10.43;5.60;;;21.30;97.90;;;;;;4580244;31;20036;-85
2022/06/28 04:48:25;;;;;;;10.30;5.15;;;21.30;97.80;;;;;;4580487;31;20366;-84
2022/06/28 04:51:10;;;;;;;11.55;5.53;;;22.10;98.00;;;;;;4580428;31;20286;-87
2022/06/28 04:53:40;;;;;;;9.38;5.18;;;21.50;97.80;;;;;;4567104;31;20541;-86
2022/06/28 04:56:07;;;;;;;10.60;5.30;;;21.60;97.20;;;;;;4583667;31;20391;-86
2022/06/28 04:58:33;;;;;;;10.52;5.38;;;21.70;97.10;;;;;;4570128;31;20037;-84
2022/06/28 05:00:59;;;;;;;10.70;5.43;;;21.70;96.90;;;;;;4584617;30;20549;-86
2022/06/28 05:03:24;;;;;;;10.50;4.53;;;21.70;96.90;;;;;;4655369;30;20738;-85
2022/06/28 05:05:50;;;;;;;9.77;5.07;;;21.90;96.80;;;;;;4655406;30;20042;-86
2022/06/28 05:08:16;;;;;;;10.15;5.00;;;21.90;96.70;;;;;;4655318;30;20034;-87
2022/06/28 05:10:42;;;;;;;14.07;5.82;;;21.80;96.70;;;;;;4671790;30;20500;-84
2022/06/28 05:13:07;;;;;;;15.48;5.68;;;22.00;96.60;;;;;;4670547;30;20458;-85
2022/06/28 05:15:34;;;;;;;11.80;5.78;;;22.10;96.50;;;;;;4672795;30;20051;-85
2022/06/28 05:18:00;;;;;;;8.85;5.18;;;22.10;96.40;;;;;;4656453;30;20067;-87
2022/06/28 05:20:51;;;;;;;12.23;6.43;;;22.20;96.40;;;;;;4670247;30;20395;-83
2022/06/28 05:23:25;;;;;;;11.82;5.72;;;22.20;96.40;;;;;;4670601;30;20268;-83
2022/06/28 05:25:51;;;;;;;12.52;6.00;;;22.70;96.80;;;;;;4655044;30;20100;-86
2022/06/28 05:28:17;;;;;;;10.23;5.45;;;22.40;96.20;;;;;;4670559;30;20338;-87
2022/06/28 05:30:53;;;;;;;12.88;5.68;;;22.40;96.10;;;;;;4653789;30;20129;-83
2022/06/28 05:33:20;;;;;;;12.00;5.68;;;22.40;96.60;;;;;;4654750;30;20030;-87
2022/06/28 05:35:47;;;;;;;10.95;5.85;;;22.40;96.30;;;;;;4654048;30;20399;-87
2022/06/28 05:38:22;;;;;;;12.32;5.55;;;22.50;96.10;;;;;;4654397;30;20042;-85
2022/06/28 05:40:57;;;;;;;13.68;5.95;;;22.60;96.00;;;;;;4669572;30;20542;-86
2022/06/28 05:43:25;;;;;;;12.68;6.07;;;22.70;95.90;;;;;;4670424;30;20129;-85
2022/06/28 05:46:03;;;;;;;14.32;6.40;;;22.80;95.90;;;;;;4670512;30;20042;-86
2022/06/28 05:48:42;;;;;;;10.27;5.28;;;23.00;95.60;;;;;;4669356;30;20022;-86
2022/06/28 05:51:23;;;;;;;10.85;5.38;;;22.80;95.60;;;;;;4669632;30;20034;-83
2022/06/28 05:53:50;;;;;;;10.40;5.65;;;22.90;95.30;;;;;;4669779;30;20034;-83
2022/06/28 05:58:47;;;;;;;12.18;5.75;;;23.20;94.80;;;;;;4704308;25;20252;-85
2022/06/28 06:01:13;;;;;;;11.82;5.60;;;23.30;94.70;;;;;;4671097;30;20489;-84
2022/06/28 06:03:38;;;;;;;12.23;5.50;;;23.40;94.40;;;;;;4669977;30;20111;-86
2022/06/28 06:06:04;;;;;;;9.68;5.95;;;23.50;94.50;;;;;;4671117;30;20255;-86
2022/06/28 06:08:32;;;;;;;13.60;7.35;;;23.50;94.20;;;;;;4670837;30;20026;-85
2022/06/28 06:10:57;;;;;;;13.10;6.35;;;23.60;93.90;;;;;;4670583;30;20045;-83
2022/06/28 06:13:23;;;;;;;11.57;6.13;;;23.60;93.80;;;;;;4671112;30;20049;-83
2022/06/28 06:15:58;;;;;;;9.95;6.47;;;23.80;93.60;;;;;;4670795;30;20549;-87
2022/06/28 06:18:24;;;;;;;13.75;5.63;;;23.90;93.40;;;;;;4670922;30;20084;-83
2022/06/28 06:20:50;;;;;;;10.52;5.85;;;23.90;93.30;;;;;;4670595;30;20525;-84
2022/06/28 06:23:15;;;;;;;13.05;6.32;;;24.00;93.20;;;;;;4674069;25;20611;-83
2022/06/28 06:26:16;;;;;;;14.95;6.30;;;24.20;92.90;;;;;;4668997;30;20293;-86
2022/06/28 06:29:59;;;;;;;10.93;5.05;;;24.90;92.80;;;;;;4615060;30;20340;-85
2022/06/28 06:32:26;;;;;;;10.30;5.95;;;26.00;93.40;;;;;;4643680;25;20054;-85
2022/06/28 06:35:01;;;;;;;9.93;5.40;;;24.50;92.20;;;;;;4674556;25;20062;-85
2022/06/28 06:37:27;;;;;;;11.90;5.68;;;24.40;92.70;;;;;;4653495;30;20038;-84
2022/06/28 06:39:56;;;;;;;10.18;5.43;;;24.70;92.60;;;;;;4668615;30;20038;-86
2022/06/28 06:42:31;;;;;;;9.70;5.65;;;25.00;92.50;;;;;;4668736;30;20109;-85
2022/06/28 06:44:58;;;;;;;10.77;6.22;;;;;;;;;;4668839;30;20277;-84
2022/06/28 06:47:24;;;;;;;11.60;6.70;;;24.90;91.80;;;;;;4652938;30;20040;-85
2022/06/28 06:49:50;;;;;;;15.57;6.45;;;24.90;92.00;;;;;;4652608;30;20030;-83
2022/06/28 06:52:16;;;;;;;14.00;6.45;;;24.90;92.00;;;;;;4652455;30;20034;-85
2022/06/28 06:54:41;;;;;;;14.50;6.03;;;25.00;91.70;;;;;;4652928;30;20030;-85
2022/06/28 06:57:08;;;;;;;9.82;5.75;;;25.10;91.60;;;;;;4668181;30;20104;-87
2022/06/28 06:59:34;;;;;;;12.15;6.05;;;25.10;91.30;;;;;;4652809;30;20041;-86
2022/06/28 07:02:06;;;;;;;9.40;5.20;;;25.30;91.60;;;;;;4667499;30;20030;-86
2022/06/28 07:04:35;;;;;;;9.15;5.07;;;25.70;91.30;;;;;;4668182;30;20038;-86
2022/06/28 07:07:16;;;;;;;13.63;6.10;;;;;;;;;;4652378;30;20291;-84
2022/06/28 07:09:48;;;;;;;11.70;6.07;;;25.50;91.10;;;;;;4668103;30;20332;-85
2022/06/28 07:12:29;;;;;;;10.43;5.78;;;25.60;91.60;;;;;;4652368;30;20561;-84
2022/06/28 07:14:55;;;;;;;10.80;5.32;;;25.50;91.60;;;;;;4677909;25;20081;-85
2022/06/28 07:17:30;;;;;;;10.68;5.90;;;25.80;91.40;;;;;;4668275;30;20406;-86
2022/06/28 07:19:55;;;;;;;16.50;6.15;;;25.90;91.20;;;;;;4685243;30;20123;-84
2022/06/28 07:22:22;;;;;;;15.05;5.95;;;25.90;90.60;;;;;;4669364;30;20530;-85
2022/06/28 07:24:49;;;;;;;10.45;5.68;;;26.00;90.40;;;;;;4669119;30;20050;-85
2022/06/28 07:27:15;;;;;;;11.63;6.65;;;26.30;90.10;;;;;;4669160;30;20116;-85
2022/06/28 07:29:41;;;;;;;9.70;5.70;;;26.30;89.70;;;;;;4684855;30;20654;-85
2022/06/28 07:32:07;;;;;;;12.52;5.97;;;26.50;89.10;;;;;;4684868;30;20678;-84
2022/06/28 07:34:33;;;;;;;11.77;6.53;;;26.70;88.70;;;;;;4669227;30;20289;-83
2022/06/28 07:36:59;;;;;;;13.75;5.85;;;26.90;88.10;;;;;;4668949;30;20248;-85
2022/06/28 07:39:33;;;;;;;11.82;5.65;;;27.00;88.80;;;;;;4684810;30;20030;-85
2022/06/28 07:42:05;;;;;;;12.02;6.25;;;27.10;86.60;;;;;;4668606;30;20478;-87
2022/06/28 07:44:31;;;;;;;10.48;5.15;;;27.20;86.30;;;;;;4684778;30;20071;-84
2022/06/28 07:46:57;;;;;;;9.55;5.18;;;27.30;85.50;;;;;;4684633;30;20475;-84
2022/06/28 07:52:36;;;;;;;13.10;6.45;;;27.40;86.40;;;;;;4684711;30;20095;-86
2022/06/28 07:55:08;;;;;;;14.40;5.85;;;27.60;85.70;;;;;;4663561;30;20046;-85
2022/06/28 07:57:34;;;;;;;16.85;5.80;;;27.60;85.50;;;;;;4650322;30;20363;-85
2022/06/28 08:00:01;;;;;;;14.00;7.10;;;27.70;84.80;;;;;;4650229;30;20192;-84
2022/06/28 08:02:28;;;;;;;10.60;5.55;;;27.70;84.20;;;;;;4664440;30;20123;-86
2022/06/28 08:04:54;;;;;;;8.48;5.03;;;27.90;84.30;;;;;;4649838;30;20088;-86
2022/06/28 08:07:22;;;;;;;15.73;5.70;;;28.30;82.60;;;;;;4664193;30;20076;-85
2022/06/28 08:09:50;;;;;;;12.38;5.68;;;28.40;83.10;;;;;;4650803;30;20058;-84
2022/06/28 08:12:16;;;;;;;12.05;5.80;;;28.60;81.80;;;;;;4673854;25;20337;-83
2022/06/28 08:14:42;;;;;;;12.75;6.32;;;28.70;81.00;;;;;;4668322;30;20488;-84
2022/06/28 08:17:08;;;;;;;14.18;5.25;;;28.70;80.80;;;;;;4668256;30;20110;-84
2022/06/28 08:19:34;;;;;;;11.88;4.85;;;28.80;80.80;;;;;;4651853;30;20342;-86
2022/06/28 08:22:06;;;;;;;11.18;5.18;;;28.90;79.50;;;;;;4683263;25;20070;-85
2022/06/28 08:24:32;;;;;;;9.40;5.87;;;29.00;80.20;;;;;;4683896;30;20552;-84
2022/06/28 08:27:07;;;;;;;14.60;6.57;;;29.10;80.00;;;;;;4693363;25;20323;-86
2022/06/28 08:29:46;;;;;;;15.13;5.45;;;29.20;79.40;;;;;;4684179;30;20037;-85
2022/06/28 08:32:16;;;;;;;10.00;5.07;;;29.30;81.20;;;;;;4683907;30;20539;-85
2022/06/28 08:34:42;;;;;;;8.23;4.70;;;29.30;76.40;;;;;;4710136;25;20055;-83
2022/06/28 08:37:08;;;;;;;10.98;5.65;;;29.60;77.20;;;;;;4697552;25;20323;-85
2022/06/28 08:39:40;;;;;;;14.05;4.70;;;29.40;77.10;;;;;;4685017;30;20403;-85
2022/06/28 08:42:27;;;;;;;13.73;8.27;;;29.50;78.20;;;;;;4668825;30;20046;-85
2022/06/28 08:44:58;;;;;;;9.35;4.93;;;29.60;78.70;;;;;;4668897;30;20259;-84
2022/06/28 08:47:39;;;;;;;13.40;5.15;;;29.80;77.40;;;;;;4684530;30;20030;-83
2022/06/28 08:50:23;;;;;;;12.48;6.13;;;29.70;77.20;;;;;;4676807;25;20213;-84
2022/06/28 08:52:49;;;;;;;12.75;5.47;;;29.90;76.60;;;;;;4667480;25;20058;-84
2022/06/28 08:55:30;;;;;;;13.32;5.65;;;30.00;76.70;;;;;;4673052;25;20638;-85
2022/06/28 08:58:07;;;;;;;12.95;6.05;;;30.70;76.90;;;;;;4651573;30;20235;-84
2022/06/28 09:00:52;;;;;;;12.45;5.55;;;30.50;75.40;;;;;;4666888;30;20150;-85
2022/06/28 09:03:31;;;;;;;11.05;5.05;;;32.00;75.20;;;;;;4672929;25;20061;-85
2022/06/28 09:06:04;;;;;;;14.07;5.35;;;30.90;74.80;;;;;;4651616;30;20542;-84
2022/06/28 09:08:48;;;;;;;10.40;5.72;;;30.90;73.10;;;;;;4667061;30;20328;-83
2022/06/28 09:11:15;;;;;;;12.38;5.47;;;31.10;73.30;;;;;;4651211;30;20042;-86
2022/06/28 09:13:47;;;;;;;9.85;4.43;;;31.20;71.60;;;;;;4666810;30;20030;-85
2022/06/28 09:16:27;;;;;;;11.07;6.27;;;29.70;70.80;;;;;;4651362;30;20042;-84
2022/06/28 09:19:03;;;;;;;7.60;4.88;;;31.30;71.30;;;;;;4667126;30;20037;-85
2022/06/28 09:21:29;;;;;;;10.18;5.22;;;31.30;71.20;;;;;;4667273;30;20026;-84
2022/06/28 09:24:08;;;;;;;18.95;6.43;;;31.40;69.90;;;;;;4667144;30;20504;-85
2022/06/28 09:26:41;;;;;;;9.13;5.20;;;31.40;70.30;;;;;;4651258;30;20034;-86
2022/06/28 09:29:13;;;;;;;13.27;4.97;;;31.40;70.80;;;;;;4666683;30;20704;-85
2022/06/28 09:31:39;;;;;;;10.35;5.15;;;31.80;69.20;;;;;;4674381;25;21699;-84
2022/06/28 09:34:17;;;;;;;12.82;5.43;;;31.80;70.70;;;;;;4683894;30;20526;-85
2022/06/28 09:36:55;;;;;;;10.57;5.57;;;32.10;70.20;;;;;;4683552;30;20487;-85
2022/06/28 09:39:30;;;;;;;16.02;6.03;;;32.10;69.30;;;;;;4684986;30;20068;-85
2022/06/28 09:42:05;;;;;;;12.63;5.57;;;31.90;68.70;;;;;;4671020;30;20524;-85
2022/06/28 09:44:34;;;;;;;10.30;5.25;;;32.20;68.80;;;;;;4670790;30;20046;-84
2022/06/28 09:47:42;;;;;;;10.80;5.30;;;32.60;68.00;;;;;;4685449;30;20076;-85
2022/06/28 09:50:23;;;;;;;12.05;5.68;;;34.20;69.20;;;;;;4669705;30;20240;-85
2022/06/28 09:52:52;;;;;;;10.43;5.38;;;31.20;65.00;;;;;;4671119;30;20178;-86
2022/06/28 09:55:19;;;;;;;9.40;4.93;;;33.10;65.80;;;;;;4686742;30;20224;-83
2022/06/28 09:57:47;;;;;;;11.93;5.30;;;33.20;64.80;;;;;;4686644;30;20243;-85
2022/06/28 10:00:16;;;;;;;10.02;5.68;;;32.80;65.40;;;;;;4670731;30;20037;-83
2022/06/28 10:02:45;;;;;;;9.60;5.68;;;33.20;65.30;;;;;;4670182;30;20465;-84
2022/06/28 10:05:13;;;;;;;10.63;5.13;;;33.40;64.60;;;;;;4685716;25;20400;-85
2022/06/28 10:07:43;;;;;;;9.25;4.60;;;33.60;64.10;;;;;;4668905;30;20563;-84
2022/06/28 10:10:10;;;;;;;9.90;4.60;;;33.90;63.10;;;;;;4653503;30;20246;-82
2022/06/28 10:46:14;;;;;;;9.00;4.57;;;34.10;60.00;;;;;;4775387;25;20205;-85
2022/06/28 10:48:53;;;;;;;8.90;4.72;;;35.70;60.80;;;;;;4667123;30;20565;-84
2022/06/28 10:51:25;;;;;;;9.95;5.10;;;35.30;59.60;;;;;;4667910;30;20221;-84
2022/06/28 10:54:06;;;;;;;14.48;4.70;;;35.50;57.40;;;;;;4652621;30;20121;-84
2022/06/28 10:56:43;;;;;;;10.40;3.92;;;35.20;57.50;;;;;;4652871;30;20137;-86
2022/06/28 10:59:46;;;;;;;12.73;4.43;;;35.20;57.30;;;;;;4668363;30;20060;-87
2022/06/28 11:02:11;;;;;;;18.08;4.32;;;34.40;55.70;;;;;;4667922;30;20038;-85
2022/06/28 11:04:46;;;;;;;9.68;3.80;;;35.60;56.30;;;;;;4668121;30;20541;-86
2022/06/28 11:07:34;;;;;;;9.43;3.97;;;35.60;55.60;;;;;;4668534;30;20122;-85
2022/06/28 11:10:00;;;;;;;10.45;4.25;;;35.50;55.10;;;;;;4653620;30;20550;-83
2022/06/28 11:12:37;;;;;;;12.20;3.40;;;35.90;55.90;;;;;;4669085;30;20034;-84
2022/06/28 11:15:09;;;;;;;11.57;4.13;;;35.60;55.20;;;;;;4652854;30;20064;-85
2022/06/28 11:17:43;;;;;;;8.75;4.07;;;36.00;54.50;;;;;;4634986;30;20046;-82
2022/06/28 11:20:14;;;;;;;9.25;4.15;;;36.30;55.00;;;;;;4635462;30;20295;-82
2022/06/28 11:22:45;;;;;;;9.65;3.80;;;36.80;54.00;;;;;;4650781;30;20121;-84
2022/06/28 11:25:18;;;;;;;7.95;3.58;;;36.90;53.40;;;;;;4635309;30;20108;-82
2022/06/28 11:27:45;;;;;;;7.55;3.95;;;37.30;51.70;;;;;;4643627;25;20137;-85
2022/06/28 11:30:12;;;;;;;10.60;4.30;;;37.20;52.40;;;;;;4652143;30;20116;-82
2022/06/28 11:32:40;;;;;;;10.43;4.18;;;37.10;52.50;;;;;;4651946;30;20034;-85
2022/06/28 11:35:20;;;;;;;9.85;4.82;;;37.30;52.20;;;;;;4668088;30;20076;-82
2022/06/28 11:37:53;;;;;;;10.10;4.47;;;37.40;52.40;;;;;;4652064;30;20053;-85
2022/06/28 11:40:21;;;;;;;9.32;3.40;;;37.80;52.10;;;;;;4673740;25;20042;-83
2022/06/28 11:42:58;;;;;;;9.77;4.93;;;38.10;51.40;;;;;;4634524;30;20532;-84
2022/06/28 11:45:37;;;;;;;7.85;3.25;;;38.70;50.60;;;;;;4648950;30;20050;-86
2022/06/28 11:48:06;;;;;;;11.65;3.42;;;39.10;49.20;;;;;;4648956;30;20038;-85
2022/06/28 11:50:44;;;;;;;12.18;4.43;;;39.50;48.20;;;;;;4650460;30;20122;-84
2022/06/28 11:53:15;;;;;;;7.03;3.15;;;39.70;48.00;;;;;;4634799;30;20061;-83
2022/06/28 11:55:58;;;;;;;10.15;3.78;;;39.70;47.20;;;;;;4648585;30;20034;-85
2022/06/28 11:58:25;;;;;;;6.70;3.42;;;39.80;46.70;;;;;;4648946;30;20141;-86
2022/06/28 12:01:14;;;;;;;9.35;3.92;;;39.60;47.30;;;;;;4634492;30;20507;-83
2022/06/28 12:03:42;;;;;;;8.45;3.30;;;39.80;46.90;;;;;;4648653;30;20054;-84
2022/06/28 12:06:20;;;;;;;10.85;4.38;;;39.80;46.70;;;;;;4650118;30;20053;-85
2022/06/28 12:08:50;;;;;;;10.32;3.88;;;40.00;47.00;;;;;;4648787;30;20593;-85
2022/06/28 12:11:27;;;;;;;7.05;3.83;;;40.50;45.90;;;;;;4717773;25;20081;-83
2022/06/28 12:14:31;;;;;;;6.47;3.50;;;40.80;45.50;;;;;;4651675;30;20506;-86
2022/06/28 12:17:16;;;;;;;9.25;3.75;;;41.20;45.30;;;;;;4651471;30;20039;-84
2022/06/28 12:19:43;;;;;;;11.85;3.50;;;41.20;46.90;;;;;;4650932;30;20485;-84
2022/06/28 12:22:16;;;;;;;8.07;2.90;;;41.20;45.00;;;;;;4650982;30;20137;-84
2022/06/28 12:24:55;;;;;;;7.85;3.28;;;41.10;44.60;;;;;;4651157;30;20063;-85
2022/06/28 12:27:31;;;;;;;6.90;3.08;;;41.30;44.50;;;;;;4651234;30;20034;-85
2022/06/28 12:29:59;;;;;;;10.57;4.00;;;42.30;45.20;;;;;;4667040;30;20112;-84
2022/06/28 12:32:34;;;;;;;7.82;3.50;;;42.10;43.90;;;;;;4650549;30;20092;-83
2022/06/28 12:35:02;;;;;;;7.30;3.45;;;42.00;44.80;;;;;;4659877;25;20145;-83
2022/06/28 12:37:28;;;;;;;6.90;3.53;;;42.20;43.40;;;;;;4683692;30;20594;-84
2022/06/28 12:39:55;;;;;;;9.38;4.10;;;42.70;42.60;;;;;;4667637;30;20140;-84
2022/06/28 12:42:39;;;;;;;10.75;4.00;;;42.70;42.20;;;;;;4668401;30;20029;-85
2022/06/28 12:45:05;;;;;;;7.38;3.30;;;42.70;42.80;;;;;;4683943;30;20423;-83
2022/06/28 12:47:33;;;;;;;8.75;3.05;;;42.40;42.20;;;;;;4684265;30;20034;-83
2022/06/28 12:50:02;;;;;;;10.82;2.95;;;42.30;41.70;;;;;;4668072;30;20133;-82
2022/06/28 12:52:36;;;;;;;8.80;3.40;;;42.70;41.50;;;;;;4684219;30;20052;-83
2022/06/28 12:55:20;;;;;;;8.73;2.70;;;42.70;40.90;;;;;;4677093;25;20547;-84
2022/06/28 12:57:49;;;;;;;7.20;2.60;;;42.70;41.50;;;;;;4667381;30;20045;-83
2022/06/28 13:02:55;;;;;;;7.40;2.90;;;42.20;41.00;;;;;;4686593;25;20145;-84
2022/06/28 13:05:23;;;;;;;7.95;2.90;;;42.20;42.40;;;;;;4667923;30;20053;-84
2022/06/28 13:07:48;;;;;;;11.25;3.95;;;42.30;41.20;;;;;;4683870;30;20362;-84
2022/06/28 13:10:14;;;;;;;9.05;3.13;;;42.10;41.40;;;;;;4684104;30;20343;-82
2022/06/28 13:12:45;;;;;;;10.40;2.95;;;42.30;41.60;;;;;;4684511;30;20049;-84
2022/06/28 13:15:20;;;;;;;7.95;2.72;;;39.30;39.80;;;;;;4687160;30;20311;-84
2022/06/28 13:17:46;;;;;;;8.52;3.38;;;41.70;41.30;;;;;;4687081;30;20072;-83
2022/06/28 13:20:13;;;;;;;9.73;2.78;;;42.00;40.70;;;;;;4671378;30;20061;-82
2022/06/28 13:22:40;;;;;;;11.32;2.88;;;42.10;40.60;;;;;;4687201;30;20684;-82
2022/06/28 13:25:07;;;;;;;8.88;2.70;;;42.20;40.00;;;;;;4671423;30;20653;-82
2022/06/28 13:27:33;;;;;;;8.00;3.00;;;41.80;40.10;;;;;;4687407;30;20060;-83
2022/06/28 13:29:58;;;;;;;6.88;2.70;;;42.10;40.00;;;;;;4687205;30;20068;-84
2022/06/28 13:32:24;;;;;;;7.50;2.67;;;42.10;39.30;;;;;;4671418;30;20043;-84
2022/06/28 13:34:50;;;;;;;5.68;2.55;;;42.50;39.20;;;;;;4670830;30;20057;-84
2022/06/28 13:37:16;;;;;;;6.65;2.80;;;41.90;39.40;;;;;;4671296;30;20129;-84
2022/06/28 13:39:45;;;;;;;6.22;2.33;;;41.90;39.40;;;;;;4671041;30;20057;-85
2022/06/28 13:42:26;;;;;;;7.05;2.80;;;42.20;39.30;;;;;;4686741;30;20248;-84
2022/06/28 13:45:09;;;;;;;5.10;2.38;;;42.10;39.70;;;;;;4686810;30;20679;-84
2022/06/28 13:47:44;;;;;;;9.32;2.90;;;42.00;39.80;;;;;;4670893;30;20046;-85
2022/06/28 13:50:22;;;;;;;5.47;2.28;;;42.00;39.00;;;;;;4686580;30;20326;-85
2022/06/28 13:52:59;;;;;;;7.03;2.58;;;42.30;38.30;;;;;;4687012;30;20030;-84
2022/06/28 13:55:42;;;;;;;6.82;2.10;;;42.40;38.50;;;;;;4686769;30;20033;-85